createdAt,value
2019-02-17T00:00:46.125Z,101961.61
2019-02-17T00:03:15.904Z,101950.43
2019-02-17T00:05:45.569Z,101961.61
2019-02-17T00:08:15.388Z,101962.53
2019-02-17T00:10:45.073Z,101955.75
2019-02-17T00:13:14.764Z,101957.53
2019-02-17T00:15:44.697Z,101957.10
2019-02-17T00:18:14.365Z,101958.45
2019-02-17T00:20:44.342Z,101959.77
2019-02-17T00:23:14.032Z,101959.37
2019-02-17T00:25:43.726Z,101956.83
2019-02-17T00:28:13.385Z,101959.06
2019-02-17T00:30:43.051Z,101954.77
2019-02-17T00:33:12.733Z,101954.77
2019-02-17T00:35:42.671Z,101954.77
2019-02-17T00:38:12.342Z,101950.92
2019-02-17T00:40:42.012Z,101950.92
2019-02-17T00:43:11.932Z,101944.47
2019-02-17T00:45:41.680Z,101950.09
2019-02-17T00:48:11.421Z,101943.25
2019-02-17T00:50:41.564Z,101943.25
2019-02-17T00:53:11.257Z,101949.27
2019-02-17T00:55:40.913Z,101942.88
2019-02-17T00:58:10.584Z,101943.82
2019-02-17T01:00:40.261Z,101939.95
2019-02-17T01:03:09.932Z,101945.56
2019-02-17T01:05:39.619Z,101944.73
2019-02-17T01:08:09.589Z,101947.75
2019-02-17T01:10:39.269Z,101942.16
2019-02-17T01:13:08.933Z,101943.45
2019-02-17T01:15:38.690Z,101941.76
2019-02-17T01:18:08.390Z,101936.62
2019-02-17T01:20:38.051Z,101937.45
2019-02-17T01:23:07.764Z,101928.43
2019-02-17T01:25:37.448Z,101933.16
2019-02-17T01:28:07.153Z,101936.16
2019-02-17T01:30:36.856Z,101936.59
2019-02-17T01:33:06.553Z,101932.30
2019-02-17T01:35:36.234Z,101933.59
2019-02-17T01:38:06.014Z,101932.76
2019-02-17T01:40:35.692Z,101928.89
2019-02-17T01:43:05.513Z,101925.91
2019-02-17T01:45:35.188Z,101924.19
2019-02-17T01:48:05.139Z,101921.64
2019-02-17T01:50:34.810Z,101926.80
2019-02-17T01:53:05.304Z,101923.36
2019-02-17T01:55:34.986Z,101917.77
2019-02-17T01:58:05.177Z,101919.09
2019-02-17T02:00:34.851Z,101907.52
2019-02-17T02:03:05.391Z,101910.53
2019-02-17T02:05:35.068Z,101909.70
2019-02-17T02:08:05.246Z,101904.16
2019-02-17T02:10:34.925Z,101906.80
2019-02-17T02:13:05.474Z,101905.99
2019-02-17T02:15:35.144Z,101897.03
2019-02-17T02:18:04.888Z,101896.62
2019-02-17T02:20:34.560Z,101898.40
2019-02-17T02:23:04.973Z,101898.45
2019-02-17T02:25:34.705Z,101895.47
2019-02-17T02:28:05.056Z,101896.36
2019-02-17T02:30:34.738Z,101892.49
2019-02-17T02:33:04.712Z,101890.31
2019-02-17T02:35:34.393Z,101883.88
2019-02-17T02:38:04.899Z,101878.31
2019-02-17T02:40:34.571Z,101880.06
2019-02-17T02:43:05.140Z,101878.77
2019-02-17T02:45:34.813Z,101875.37
2019-02-17T02:48:05.595Z,101877.48
2019-02-17T02:50:35.262Z,101878.34
2019-02-17T02:53:04.952Z,101876.66
2019-02-17T02:55:34.620Z,101878.40
2019-02-17T02:58:05.175Z,101876.22
2019-02-17T03:00:34.932Z,101876.22
2019-02-17T03:03:05.308Z,101876.22
2019-02-17T03:05:36.696Z,101874.94
2019-02-17T03:08:06.365Z,101874.53
2019-02-17T03:10:36.029Z,101875.42
2019-02-17T03:13:05.722Z,101866.42
2019-02-17T03:15:35.385Z,101866.91
2019-02-17T03:18:05.191Z,101860.90
2019-02-17T03:20:34.869Z,101863.05
2019-02-17T03:23:05.316Z,101862.64
2019-02-17T03:25:35.030Z,101862.64
2019-02-17T03:28:04.786Z,101856.63
2019-02-17T03:30:34.458Z,101855.37
2019-02-17T03:33:05.003Z,101859.63
2019-02-17T03:35:34.665Z,101855.80
2019-02-17T03:38:05.126Z,101848.52
2019-02-17T03:40:35.273Z,101851.13
2019-02-17T03:43:05.273Z,101841.28
2019-02-17T03:45:34.941Z,101843.42
2019-02-17T03:48:05.032Z,101842.13
2019-02-17T03:50:34.963Z,101842.13
2019-02-17T03:53:05.009Z,101846.00
2019-02-17T03:55:34.954Z,101842.05
2019-02-17T03:58:05.154Z,101845.03
2019-02-17T04:00:34.842Z,101842.45
2019-02-17T04:03:04.710Z,101843.77
2019-02-17T04:05:34.381Z,101843.34
2019-02-17T04:08:04.956Z,101839.53
2019-02-17T04:10:34.619Z,101834.81
2019-02-17T04:13:04.974Z,101828.83
2019-02-17T04:15:34.720Z,101824.98
2019-02-17T04:18:05.349Z,101817.31
2019-02-17T04:20:35.096Z,101818.20
2019-02-17T04:23:05.021Z,101818.22
2019-02-17T04:25:34.681Z,101821.69
2019-02-17T04:28:05.108Z,101822.59
2019-02-17T04:30:34.783Z,101819.61
2019-02-17T04:33:05.036Z,101818.80
2019-02-17T04:35:34.706Z,101812.80
2019-02-17T04:38:05.121Z,101815.82
2019-02-17T04:40:34.848Z,101809.87
2019-02-17T04:43:05.000Z,101806.48
2019-02-17T04:45:34.665Z,101801.77
2019-02-17T04:48:05.100Z,101805.65
2019-02-17T04:50:35.004Z,101804.39
2019-02-17T04:53:05.173Z,101806.96
2019-02-17T04:55:34.836Z,101805.70
2019-02-17T04:58:04.728Z,101805.30
2019-02-17T05:00:40.125Z,101803.63
2019-02-17T05:03:05.774Z,101800.21
2019-02-17T05:05:35.716Z,101790.83
2019-02-17T05:08:05.390Z,101794.69
2019-02-17T05:10:35.071Z,101789.97
2019-02-17T05:13:05.561Z,101787.88
2019-02-17T05:15:35.236Z,101794.33
2019-02-17T05:18:04.898Z,101789.63
2019-02-17T05:20:34.568Z,101792.26
2019-02-17T05:23:05.088Z,101791.84
2019-02-17T05:25:34.761Z,101792.32
2019-02-17T05:28:05.220Z,101792.32
2019-02-17T05:30:34.898Z,101789.77
2019-02-17T05:33:04.761Z,101789.79
2019-02-17T05:35:34.675Z,101785.07
2019-02-17T05:38:04.888Z,101784.67
2019-02-17T05:40:36.614Z,101780.39
2019-02-17T05:43:06.141Z,101777.41
2019-02-17T05:45:36.058Z,101777.41
2019-02-17T05:48:05.766Z,101777.41
2019-02-17T05:50:35.428Z,101782.11
2019-02-17T05:53:05.115Z,101780.00
2019-02-17T05:55:34.798Z,101783.86
2019-02-17T05:58:05.012Z,101777.85
2019-02-17T06:00:36.279Z,101780.45
2019-02-17T06:03:06.208Z,101777.44
2019-02-17T06:05:36.105Z,101778.32
2019-02-17T06:08:05.860Z,101771.52
2019-02-17T06:10:35.552Z,101774.53
2019-02-17T06:13:05.218Z,101776.27
2019-02-17T06:15:34.897Z,101778.01
2019-02-17T06:18:05.328Z,101782.29
2019-02-17T06:20:35.007Z,101778.45
2019-02-17T06:23:05.530Z,101781.45
2019-02-17T06:25:36.187Z,101777.61
2019-02-17T06:28:05.858Z,101783.20
2019-02-17T06:30:35.543Z,101780.66
2019-02-17T06:33:05.465Z,101783.22
2019-02-17T06:35:35.142Z,101776.81
2019-02-17T06:38:05.128Z,101772.52
2019-02-17T06:40:34.965Z,101766.14
2019-02-17T06:43:04.745Z,101777.67
2019-02-17T06:45:34.427Z,101780.73
2019-02-17T06:48:04.916Z,101779.89
2019-02-17T06:50:34.689Z,101776.89
2019-02-17T06:53:05.054Z,101783.33
2019-02-17T06:55:45.280Z,101782.47
2019-02-17T06:58:15.349Z,101781.61
2019-02-17T07:00:50.309Z,101787.61
2019-02-17T07:03:20.171Z,101780.34
2019-02-17T07:06:12.012Z,101783.31
2019-02-17T07:08:41.788Z,101783.33
2019-02-17T07:11:11.539Z,101774.75
2019-02-17T07:13:41.201Z,101776.46
2019-02-17T07:16:10.887Z,101776.89
2019-02-17T07:18:40.555Z,101774.75
2019-02-17T07:21:11.265Z,101773.03
2019-02-17T07:23:40.928Z,101779.02
2019-02-17T07:26:10.605Z,101776.44
2019-02-17T07:28:40.272Z,101776.04
2019-02-17T07:31:09.947Z,101768.73
2019-02-17T07:33:39.623Z,101775.99
2019-02-17T07:36:09.295Z,101776.42
2019-02-17T07:38:38.969Z,101770.00
2019-02-17T07:41:08.643Z,101763.97
2019-02-17T07:43:38.478Z,101768.69
2019-02-17T07:46:08.145Z,101763.55
2019-02-17T07:48:37.827Z,101760.53
2019-02-17T07:51:07.546Z,101763.51
2019-02-17T07:53:37.212Z,101762.20
2019-02-17T07:56:07.196Z,101765.63
2019-02-17T07:58:36.894Z,101762.19
2019-02-17T08:01:07.344Z,101759.14
2019-02-17T08:03:37.029Z,101762.52
2019-02-17T08:06:06.698Z,101761.20
2019-02-17T08:08:36.379Z,101761.15
2019-02-17T08:11:06.064Z,101763.73
2019-02-17T08:13:35.723Z,101756.82
2019-02-17T08:16:05.627Z,101763.20
2019-02-17T08:18:35.313Z,101757.16
2019-02-17T08:21:05.251Z,101756.27
2019-02-17T08:23:34.920Z,101754.94
2019-02-17T08:26:04.883Z,101761.33
2019-02-17T08:28:34.564Z,101761.70
2019-02-17T08:31:04.242Z,101757.83
2019-02-17T08:33:33.915Z,101754.31
2019-02-17T08:36:03.591Z,101754.31
2019-02-17T08:38:33.526Z,101756.41
2019-02-17T08:41:03.207Z,101751.23
2019-02-17T08:43:32.897Z,101766.60
2019-02-17T08:46:02.576Z,101753.67
2019-02-17T08:48:32.488Z,101757.45
2019-02-17T08:51:02.152Z,101749.66
2019-02-17T08:53:31.841Z,101751.28
2019-02-17T08:56:01.519Z,101750.77
2019-02-17T08:58:31.189Z,101751.52
2019-02-17T09:01:00.885Z,101747.16
2019-02-17T09:03:30.980Z,101740.60
2019-02-17T09:06:00.751Z,101739.62
2019-02-17T09:08:30.414Z,101744.16
2019-02-17T09:11:00.160Z,101739.23
2019-02-17T09:13:30.023Z,101740.18
2019-02-17T09:15:59.688Z,101732.47
2019-02-17T09:18:29.587Z,101728.97
2019-02-17T09:20:59.260Z,101730.12
2019-02-17T09:23:28.925Z,101727.68
2019-02-17T09:25:58.606Z,101723.97
2019-02-17T09:28:28.273Z,101727.11
2019-02-17T09:30:58.913Z,101718.09
2019-02-17T09:33:28.621Z,101718.13
2019-02-17T09:35:58.299Z,101703.38
2019-02-17T09:38:28.148Z,101708.13
2019-02-17T09:40:57.822Z,101708.57
2019-02-17T09:43:27.489Z,101706.47
2019-02-17T09:45:57.169Z,101704.90
2019-02-17T09:48:26.907Z,101699.34
2019-02-17T09:50:56.580Z,101706.20
2019-02-17T09:53:26.433Z,101700.70
2019-02-17T09:55:56.112Z,101688.31
2019-02-17T09:58:26.059Z,101696.38
2019-02-17T10:00:55.734Z,101699.33
2019-02-17T10:03:25.404Z,101693.33
2019-02-17T10:05:55.080Z,101689.47
2019-02-17T10:08:24.763Z,101688.83
2019-02-17T10:10:54.448Z,101684.42
2019-02-17T10:13:24.155Z,101690.06
2019-02-17T10:15:53.797Z,101694.72
2019-02-17T10:18:23.467Z,101686.34
2019-02-17T10:20:53.135Z,101691.53
2019-02-17T10:23:22.814Z,101691.20
2019-02-17T10:25:52.481Z,101690.22
2019-02-17T10:28:22.153Z,101691.77
2019-02-17T10:30:51.904Z,101690.43
2019-02-17T10:33:21.667Z,101679.91
2019-02-17T10:35:51.632Z,101680.47
2019-02-17T10:38:21.385Z,101674.83
2019-02-17T10:40:51.060Z,101671.64
2019-02-17T10:43:20.914Z,101681.27
2019-02-17T10:45:50.834Z,101666.91
2019-02-17T10:48:20.528Z,101671.36
2019-02-17T10:50:50.222Z,101671.88
2019-02-17T10:53:19.934Z,101662.53
2019-02-17T10:55:49.606Z,101663.22
2019-02-17T10:58:19.287Z,101659.26
2019-02-17T11:00:48.975Z,101651.73
2019-02-17T11:03:18.725Z,101646.36
2019-02-17T11:05:48.621Z,101642.40
2019-02-17T11:08:18.302Z,101639.05
2019-02-17T11:10:48.001Z,101631.55
2019-02-17T11:13:18.649Z,101631.05
2019-02-17T11:15:48.326Z,101629.50
2019-02-17T11:18:18.034Z,101625.94
2019-02-17T11:20:47.712Z,101626.31
2019-02-17T11:23:17.665Z,101622.26
2019-02-17T11:25:47.521Z,101616.83
2019-02-17T11:28:17.195Z,101617.15
2019-02-17T11:30:46.910Z,101612.17
2019-02-17T11:33:16.586Z,101604.86
2019-02-17T11:35:46.241Z,101602.32
2019-02-17T11:38:15.922Z,101601.23
2019-02-17T11:40:45.585Z,101603.74
2019-02-17T11:43:15.282Z,101603.94
2019-02-17T11:45:45.025Z,101598.58
2019-02-17T11:48:14.704Z,101589.34
2019-02-17T11:50:44.398Z,101586.92
2019-02-17T11:53:14.088Z,101589.70
2019-02-17T11:55:43.788Z,101587.59
2019-02-17T11:58:13.705Z,101584.66
2019-02-17T12:00:43.374Z,101585.94
2019-02-17T12:03:13.242Z,101586.47
2019-02-17T12:05:43.138Z,101584.55
2019-02-17T12:08:12.798Z,101578.34
2019-02-17T12:10:42.484Z,101582.72
2019-02-17T12:13:12.414Z,101576.55
2019-02-17T12:15:42.098Z,101572.13
2019-02-17T12:18:12.044Z,101565.86
2019-02-17T12:20:56.183Z,101569.41
2019-02-17T12:23:30.277Z,101563.89
2019-02-17T12:26:03.645Z,101562.50
2019-02-17T12:28:43.279Z,101560.30
2019-02-17T12:31:17.976Z,101554.26
2019-02-17T12:33:47.676Z,101551.05
2019-02-17T12:36:17.372Z,101546.13
2019-02-17T12:38:47.042Z,101544.09
2019-02-17T12:41:16.813Z,101543.48
2019-02-17T12:43:46.729Z,101542.04
2019-02-17T12:46:16.522Z,101534.19
2019-02-17T12:48:46.209Z,101532.11
2019-02-17T12:51:15.881Z,101532.11
2019-02-17T12:53:47.801Z,101523.38
2019-02-17T12:56:17.185Z,101528.05
2019-02-17T12:58:47.028Z,101523.77
2019-02-17T13:01:16.621Z,101521.86
2019-02-17T13:03:46.309Z,101519.10
2019-02-17T13:06:16.021Z,101517.92
2019-02-17T13:08:45.699Z,101514.47
2019-02-17T13:11:15.391Z,101512.91
2019-02-17T13:13:45.073Z,101508.48
2019-02-17T13:16:14.768Z,101509.80
2019-02-17T13:18:44.452Z,101502.62
2019-02-17T13:21:14.167Z,101499.02
2019-02-17T13:23:43.847Z,101503.23
2019-02-17T13:26:13.509Z,101501.70
2019-02-17T13:28:43.197Z,101496.30
2019-02-17T13:31:12.882Z,101491.37
2019-02-17T13:33:42.810Z,101492.47
2019-02-17T13:36:12.491Z,101490.69
2019-02-17T13:38:42.469Z,101489.97
2019-02-17T13:41:12.151Z,101484.83
2019-02-17T13:43:42.054Z,101484.83
2019-02-17T13:46:12.017Z,101482.45
2019-02-17T13:48:41.947Z,101486.27
2019-02-17T13:51:14.524Z,101487.25
2019-02-17T13:53:44.433Z,101481.25
2019-02-17T13:56:14.114Z,101481.72
2019-02-17T13:58:44.057Z,101478.71
2019-02-17T14:01:13.729Z,101480.41
2019-02-17T14:03:48.963Z,101478.59
2019-02-17T14:06:15.045Z,101470.93
2019-02-17T14:08:44.710Z,101465.31
2019-02-17T14:11:14.381Z,101472.38
2019-02-17T14:13:44.065Z,101468.64
2019-02-17T14:16:13.769Z,101469.02
2019-02-17T14:18:43.437Z,101460.98
2019-02-17T14:21:13.190Z,101463.02
2019-02-17T14:23:43.116Z,101456.81
2019-02-17T14:26:12.803Z,101457.41
2019-02-17T14:28:42.589Z,101460.05
2019-02-17T14:31:12.282Z,101461.36
2019-02-17T14:33:42.070Z,101459.58
2019-02-17T14:36:11.731Z,101466.16
2019-02-17T14:38:41.412Z,101466.51
2019-02-17T14:41:11.091Z,101463.50
2019-02-17T14:43:40.956Z,101458.22
2019-02-17T14:46:10.638Z,101462.18
2019-02-17T14:48:40.557Z,101455.13
2019-02-17T14:51:10.241Z,101454.52
2019-02-17T14:53:40.169Z,101457.76
2019-02-17T14:56:09.866Z,101458.09
2019-02-17T14:58:39.538Z,101448.02
2019-02-17T15:01:09.218Z,101449.30
2019-02-17T15:03:38.902Z,101448.11
2019-02-17T15:06:08.578Z,101448.31
2019-02-17T15:08:38.262Z,101435.87
2019-02-17T15:11:07.957Z,101432.16
2019-02-17T15:13:37.621Z,101428.67
2019-02-17T15:16:07.322Z,101428.29
2019-02-17T15:18:36.999Z,101431.76
2019-02-17T15:21:06.683Z,101426.95
2019-02-17T15:23:36.633Z,101431.36
2019-02-17T15:26:06.317Z,101429.64
2019-02-17T15:28:36.000Z,101429.59
2019-02-17T15:31:05.676Z,101433.41
2019-02-17T15:33:35.345Z,101436.24
2019-02-17T15:36:05.119Z,101426.16
2019-02-17T15:38:46.107Z,101425.77
2019-02-17T15:41:15.791Z,101431.73
2019-02-17T15:43:45.707Z,101426.19
2019-02-17T15:46:15.379Z,101422.22
2019-02-17T15:48:45.063Z,101427.07
2019-02-17T15:51:14.737Z,101425.59
2019-02-17T15:53:44.415Z,101423.86
2019-02-17T15:56:14.102Z,101410.80
2019-02-17T15:58:45.043Z,101413.63
2019-02-17T16:01:14.813Z,101414.91
2019-02-17T16:03:45.057Z,101413.19
2019-02-17T16:06:14.802Z,101409.20
2019-02-17T16:08:44.477Z,101403.65
2019-02-17T16:11:14.176Z,101406.59
2019-02-17T16:13:43.850Z,101409.15
2019-02-17T16:16:13.600Z,101405.16
2019-02-17T16:18:43.263Z,101409.72
2019-02-17T16:21:12.945Z,101402.11
2019-02-17T16:23:42.670Z,101404.80
2019-02-17T16:26:13.875Z,101398.66
2019-02-17T16:28:43.630Z,101393.09
2019-02-17T16:31:13.349Z,101390.41
2019-02-17T16:33:43.027Z,101387.55
2019-02-17T16:36:12.711Z,101387.72
2019-02-17T16:38:42.413Z,101388.59
2019-02-17T16:41:12.093Z,101385.64
2019-02-17T16:43:42.022Z,101386.97
2019-02-17T16:46:11.697Z,101388.68
2019-02-17T16:48:41.607Z,101389.66
2019-02-17T16:51:11.282Z,101399.03
2019-02-17T16:53:41.212Z,101403.78
2019-02-17T16:56:11.014Z,101405.88
2019-02-17T16:58:40.769Z,101404.03
2019-02-17T17:01:10.535Z,101387.85
2019-02-17T17:03:40.481Z,101401.92
2019-02-17T17:06:10.238Z,101403.34
2019-02-17T17:08:39.934Z,101399.13
2019-02-17T17:11:09.610Z,101406.98
2019-02-17T17:13:39.294Z,101411.31
2019-02-17T17:16:09.525Z,101410.47
2019-02-17T17:18:39.466Z,101404.71
2019-02-17T17:21:09.225Z,101400.39
2019-02-17T17:23:39.089Z,101402.86
2019-02-17T17:26:08.873Z,101393.29
2019-02-17T17:28:38.548Z,101407.95
2019-02-17T17:31:08.248Z,101401.45
2019-02-17T17:33:37.908Z,101402.67
2019-02-17T17:36:07.584Z,101405.19
2019-02-17T17:38:37.277Z,101405.91
2019-02-17T17:41:06.949Z,101406.11
2019-02-17T17:43:36.634Z,101408.61
2019-02-17T17:46:06.309Z,101413.61
2019-02-17T17:48:37.179Z,101415.55
2019-02-17T17:51:06.845Z,101420.72
2019-02-17T17:53:36.510Z,101417.56
2019-02-17T17:56:06.193Z,101420.41
2019-02-17T17:58:35.886Z,101420.16
2019-02-17T18:01:07.740Z,101426.73
2019-02-17T18:03:37.034Z,101425.05
2019-02-17T18:06:06.711Z,101434.67
2019-02-17T18:08:36.406Z,101431.27
2019-02-17T18:11:06.107Z,101429.52
2019-02-17T18:13:35.788Z,101432.94
2019-02-17T18:16:05.467Z,101423.34
2019-02-17T18:18:35.327Z,101437.09
2019-02-17T18:21:05.218Z,101433.17
2019-02-17T18:23:34.889Z,101431.29
2019-02-17T18:26:04.936Z,101434.25
2019-02-17T18:28:34.850Z,101434.56
2019-02-17T18:31:04.965Z,101442.72
2019-02-17T18:33:34.635Z,101440.98
2019-02-17T18:36:05.357Z,101437.61
2019-02-17T18:38:35.038Z,101439.44
2019-02-17T18:41:05.588Z,101451.59
2019-02-17T18:43:35.264Z,101446.79
2019-02-17T18:46:05.344Z,101443.59
2019-02-17T18:48:35.061Z,101446.45
2019-02-17T18:51:05.188Z,101441.91
2019-02-17T18:53:34.862Z,101442.68
2019-02-17T18:56:05.111Z,101444.16
2019-02-17T18:58:34.795Z,101434.91
2019-02-17T19:01:04.540Z,101434.27
2019-02-17T19:03:34.238Z,101439.70
2019-02-17T19:06:04.845Z,101436.42
2019-02-17T19:08:34.758Z,101436.22
2019-02-17T19:11:05.421Z,101434.25
2019-02-17T19:13:35.366Z,101425.78
2019-02-17T19:16:08.769Z,101429.91
2019-02-17T19:18:38.856Z,101441.73
2019-02-17T19:21:08.530Z,101438.89
2019-02-17T19:23:38.197Z,101435.81
2019-02-17T19:26:07.875Z,101437.41
2019-02-17T19:28:37.537Z,101433.30
2019-02-17T19:31:07.359Z,101433.19
2019-02-17T19:33:37.044Z,101431.40
2019-02-17T19:36:06.729Z,101432.70
2019-02-17T19:38:36.406Z,101428.25
2019-02-17T19:41:06.090Z,101426.60
2019-02-17T19:43:35.956Z,101424.58
2019-02-17T19:46:05.634Z,101429.00
2019-02-17T19:48:35.335Z,101434.69
2019-02-17T19:51:05.322Z,101436.62
2019-02-17T19:53:35.469Z,101433.73
2019-02-17T19:56:07.402Z,101436.05
2019-02-17T19:58:36.540Z,101432.81
2019-02-17T20:01:06.285Z,101436.97
2019-02-17T20:03:44.308Z,101440.13
2019-02-17T20:06:15.763Z,101441.95
2019-02-17T20:08:45.470Z,101446.91
2019-02-17T20:11:15.142Z,101450.50
2019-02-17T20:13:44.829Z,101449.70
2019-02-17T20:16:15.027Z,101447.17
2019-02-17T20:18:45.098Z,101456.11
2019-02-17T20:21:14.768Z,101458.20
2019-02-17T20:23:44.454Z,101460.27
2019-02-17T20:26:14.430Z,101465.27
2019-02-17T20:28:44.108Z,101460.06
2019-02-17T20:31:13.795Z,101459.09
2019-02-17T20:33:43.488Z,101457.70
2019-02-17T20:36:13.173Z,101457.44
2019-02-17T20:38:43.108Z,101452.77
2019-02-17T20:41:14.904Z,101452.40
2019-02-17T20:43:44.830Z,101462.40
2019-02-17T20:46:14.523Z,101460.25
2019-02-17T20:48:44.220Z,101455.13
2019-02-17T20:51:13.987Z,101458.19
2019-02-17T20:53:44.521Z,101463.02
2019-02-17T20:56:14.225Z,101460.09
2019-02-17T20:58:44.951Z,101466.34
2019-02-17T21:01:14.757Z,101467.34
2019-02-17T21:03:44.754Z,101453.17
2019-02-17T21:06:14.434Z,101463.33
2019-02-17T21:08:44.099Z,101459.30
2019-02-17T21:11:14.019Z,101458.81
2019-02-17T21:13:43.707Z,101453.24
2019-02-17T21:16:13.377Z,101456.66
2019-02-17T21:18:43.051Z,101461.41
2019-02-17T21:21:12.729Z,101463.63
2019-02-17T21:23:42.411Z,101465.85
2019-02-17T21:26:12.404Z,101466.73
2019-02-17T21:28:42.072Z,101477.70
2019-02-17T21:31:11.766Z,101469.12
2019-02-17T21:33:41.428Z,101465.41
2019-02-17T21:36:11.099Z,101471.95
2019-02-17T21:38:40.768Z,101469.43
2019-02-17T21:41:10.467Z,101470.28
2019-02-17T21:43:40.141Z,101469.88
2019-02-17T21:46:09.810Z,101477.01
2019-02-17T21:48:40.342Z,101475.30
2019-02-17T21:51:10.045Z,101474.92
2019-02-17T21:53:39.709Z,101473.21
2019-02-17T21:56:09.378Z,101472.42
2019-02-17T21:58:39.060Z,101467.75
2019-02-17T22:01:08.721Z,101471.70
2019-02-17T22:03:47.611Z,101474.88
2019-02-17T22:06:17.271Z,101472.82
2019-02-17T22:08:46.957Z,101470.36
2019-02-17T22:11:16.627Z,101470.80
2019-02-17T22:13:46.296Z,101470.80
2019-02-17T22:16:15.964Z,101474.25
2019-02-17T22:18:45.624Z,101477.80
2019-02-17T22:21:15.561Z,101478.86
2019-02-17T22:23:45.225Z,101477.47
2019-02-17T22:26:14.903Z,101478.64
2019-02-17T22:28:44.582Z,101475.94
2019-02-17T22:31:14.334Z,101468.53
2019-02-17T22:33:44.035Z,101467.17
2019-02-17T22:36:13.767Z,101466.05
2019-02-17T22:38:43.436Z,101469.94
2019-02-17T22:41:13.118Z,101464.31
2019-02-17T22:43:42.955Z,101469.50
2019-02-17T22:46:12.625Z,101467.79
2019-02-17T22:48:42.292Z,101467.07
2019-02-17T22:51:11.990Z,101460.23
2019-02-17T22:53:43.949Z,101461.67
2019-02-17T22:56:14.085Z,101463.98
2019-02-17T22:58:43.748Z,101464.02
2019-02-17T23:01:18.429Z,101465.83
2019-02-17T23:03:49.913Z,101469.41
2019-02-17T23:06:19.665Z,101464.66
2019-02-17T23:08:49.404Z,101468.48
2019-02-17T23:11:19.088Z,101467.19
2019-02-17T23:13:48.756Z,101471.14
2019-02-17T23:16:18.496Z,101473.33
2019-02-17T23:18:48.176Z,101472.61
2019-02-17T23:21:17.833Z,101464.98
2019-02-17T23:23:47.503Z,101465.97
2019-02-17T23:26:17.323Z,101460.37
2019-02-17T23:28:46.988Z,101466.92
2019-02-17T23:31:16.653Z,101464.83
2019-02-17T23:33:46.320Z,101464.99
2019-02-17T23:36:16.169Z,101467.72
2019-02-17T23:38:45.838Z,101465.06
2019-02-17T23:41:15.588Z,101462.39
2019-02-17T23:43:45.274Z,101462.17
2019-02-17T23:46:14.957Z,101465.46
2019-02-17T23:48:44.877Z,101465.84
2019-02-17T23:51:14.557Z,101463.69
2019-02-17T23:53:44.222Z,101463.24
2019-02-17T23:56:13.912Z,101474.48
2019-02-17T23:58:43.612Z,101476.28
